Kezdőlap
METAR-TAF:

METAR-TAF

Repülőterek :

Lamoni Municipal Airport

Lamoni, Iowa, Amerikai Egyesült Államok

földrajzi szélesség: 40-37-50N, földrajzi hosszúság: 093-54-03W, magasság: 344 m

Jelenlegi meteorológiai megfigyelések

A jelentés 41 perccel ezelõtt készült, 04:53 UTC
Északi szél 8 kt
Hőmérséklet -8°C
Páratartalom 73%
Légköri nyomás 1016 hPa
Látótávolság: 16.1 km
Szakadozott felhőzet 12000 lábon

METAR: KLWD 150453Z AUTO 36008KT 10SM BKN120 M08/M12 A3001 RMK AO2 SLP180 T10781117

Idő: 23:34 (05:34 UTC)


TAF: hiányzik

Meteorológiai megfigyelések és előrejelzések több, mint 4000 repülőtéren (METAR és TAF jelentéseket).

A térképen piros és sárga pontok jelzik az elérhető meteorológiai állomásokat.

Mozgassa az egeret a pont fölött, hogy megjelenjen az állomás neve.

Azután kattintson az időjárási megfigyelések és előrejelzések megtekintéséhez.

A térkép megváltoztatása: kattintson a fekete keresztel jelölt zöld gombra ráközelítéshez, a vonallal jelölt zöld gombra távolításhoz, vagy a zöld nyilakra a szomszédos térképek eléréséhez.


METAR-TAF: